sensor_id;sensor_type;location;lat;lon;timestamp;P1;durP1;ratioP1;P2;durP2;ratioP2
28613;SDS011;15806;53.548;9.964;2023-11-19T00:01:40;10.70;;;4.27;;
28613;SDS011;15806;53.548;9.964;2023-11-19T00:03:20;12.23;;;4.50;;
28613;SDS011;15806;53.548;9.964;2023-11-19T00:05:01;12.03;;;4.63;;
28613;SDS011;15806;53.548;9.964;2023-11-19T00:06:41;10.70;;;3.63;;
28613;SDS011;15806;53.548;9.964;2023-11-19T00:08:22;10.80;;;3.87;;
28613;SDS011;15806;53.548;9.964;2023-11-19T00:10:02;8.87;;;3.40;;
28613;SDS011;15806;53.548;9.964;2023-11-19T00:11:43;8.38;;;4.03;;
28613;SDS011;15806;53.548;9.964;2023-11-19T00:13:24;9.53;;;4.10;;
28613;SDS011;15806;53.548;9.964;2023-11-19T00:15:04;10.03;;;3.73;;
28613;SDS011;15806;53.548;9.964;2023-11-19T00:16:45;8.48;;;3.53;;
28613;SDS011;15806;53.548;9.964;2023-11-19T00:18:26;10.40;;;3.77;;
28613;SDS011;15806;53.548;9.964;2023-11-19T00:20:07;11.77;;;4.07;;
28613;SDS011;15806;53.548;9.964;2023-11-19T00:21:47;9.60;;;3.95;;
28613;SDS011;15806;53.548;9.964;2023-11-19T00:23:28;9.97;;;4.20;;
28613;SDS011;15806;53.548;9.964;2023-11-19T00:26:50;10.13;;;3.42;;
28613;SDS011;15806;53.548;9.964;2023-11-19T00:28:30;13.97;;;3.97;;
28613;SDS011;15806;53.548;9.964;2023-11-19T00:30:12;7.13;;;3.40;;
28613;SDS011;15806;53.548;9.964;2023-11-19T00:31:53;8.23;;;2.80;;
28613;SDS011;15806;53.548;9.964;2023-11-19T00:33:34;9.30;;;2.90;;
28613;SDS011;15806;53.548;9.964;2023-11-19T00:35:14;10.20;;;3.43;;
28613;SDS011;15806;53.548;9.964;2023-11-19T00:36:54;9.23;;;3.20;;
28613;SDS011;15806;53.548;9.964;2023-11-19T00:38:35;8.10;;;3.47;;
28613;SDS011;15806;53.548;9.964;2023-11-19T00:40:15;7.37;;;3.43;;
28613;SDS011;15806;53.548;9.964;2023-11-19T00:41:56;6.57;;;3.20;;
28613;SDS011;15806;53.548;9.964;2023-11-19T00:43:37;7.00;;;2.93;;
28613;SDS011;15806;53.548;9.964;2023-11-19T00:45:17;14.53;;;4.20;;
28613;SDS011;15806;53.548;9.964;2023-11-19T00:46:58;4.63;;;2.53;;
28613;SDS011;15806;53.548;9.964;2023-11-19T00:48:39;11.43;;;3.27;;
28613;SDS011;15806;53.548;9.964;2023-11-19T00:50:19;4.88;;;2.15;;
28613;SDS011;15806;53.548;9.964;2023-11-19T00:52:00;7.43;;;3.13;;
28613;SDS011;15806;53.548;9.964;2023-11-19T00:53:41;11.53;;;3.53;;
28613;SDS011;15806;53.548;9.964;2023-11-19T00:55:21;5.10;;;2.57;;
28613;SDS011;15806;53.548;9.964;2023-11-19T00:57:02;7.97;;;3.30;;
28613;SDS011;15806;53.548;9.964;2023-11-19T00:58:42;4.47;;;2.50;;
28613;SDS011;15806;53.548;9.964;2023-11-19T01:00:23;5.53;;;2.63;;
28613;SDS011;15806;53.548;9.964;2023-11-19T01:02:03;8.27;;;2.43;;
28613;SDS011;15806;53.548;9.964;2023-11-19T01:03:44;7.30;;;2.47;;
28613;SDS011;15806;53.548;9.964;2023-11-19T01:05:24;5.07;;;2.27;;
28613;SDS011;15806;53.548;9.964;2023-11-19T01:07:05;5.83;;;1.83;;
28613;SDS011;15806;53.548;9.964;2023-11-19T01:08:45;7.93;;;2.50;;
28613;SDS011;15806;53.548;9.964;2023-11-19T01:10:26;3.70;;;1.90;;
28613;SDS011;15806;53.548;9.964;2023-11-19T01:12:06;3.17;;;1.70;;
28613;SDS011;15806;53.548;9.964;2023-11-19T01:13:47;4.20;;;1.83;;
28613;SDS011;15806;53.548;9.964;2023-11-19T01:15:28;5.53;;;1.67;;
28613;SDS011;15806;53.548;9.964;2023-11-19T01:17:09;6.77;;;2.50;;
28613;SDS011;15806;53.548;9.964;2023-11-19T01:18:49;5.70;;;2.30;;
28613;SDS011;15806;53.548;9.964;2023-11-19T01:20:30;4.67;;;2.40;;
28613;SDS011;15806;53.548;9.964;2023-11-19T01:22:11;5.47;;;2.10;;
28613;SDS011;15806;53.548;9.964;2023-11-19T01:23:51;5.27;;;2.27;;
28613;SDS011;15806;53.548;9.964;2023-11-19T01:25:31;3.53;;;1.70;;
28613;SDS011;15806;53.548;9.964;2023-11-19T01:27:12;8.47;;;2.33;;
28613;SDS011;15806;53.548;9.964;2023-11-19T01:28:52;4.57;;;1.63;;
28613;SDS011;15806;53.548;9.964;2023-11-19T01:30:33;4.00;;;1.80;;
28613;SDS011;15806;53.548;9.964;2023-11-19T01:32:13;4.73;;;1.63;;
28613;SDS011;15806;53.548;9.964;2023-11-19T01:33:54;7.20;;;2.23;;
28613;SDS011;15806;53.548;9.964;2023-11-19T01:35:34;5.73;;;2.33;;
28613;SDS011;15806;53.548;9.964;2023-11-19T01:37:15;5.77;;;2.07;;
28613;SDS011;15806;53.548;9.964;2023-11-19T01:38:56;6.03;;;1.87;;
28613;SDS011;15806;53.548;9.964;2023-11-19T01:40:36;4.77;;;2.20;;
28613;SDS011;15806;53.548;9.964;2023-11-19T01:42:17;3.83;;;1.70;;
28613;SDS011;15806;53.548;9.964;2023-11-19T01:43:57;4.67;;;2.10;;
28613;SDS011;15806;53.548;9.964;2023-11-19T01:45:38;4.40;;;1.73;;
28613;SDS011;15806;53.548;9.964;2023-11-19T01:47:19;4.53;;;2.00;;
28613;SDS011;15806;53.548;9.964;2023-11-19T01:49:00;2.50;;;1.40;;
28613;SDS011;15806;53.548;9.964;2023-11-19T01:50:42;2.55;;;1.30;;
28613;SDS011;15806;53.548;9.964;2023-11-19T01:52:22;3.63;;;1.17;;
28613;SDS011;15806;53.548;9.964;2023-11-19T01:54:03;2.28;;;1.00;;
28613;SDS011;15806;53.548;9.964;2023-11-19T01:55:46;3.83;;;1.50;;
28613;SDS011;15806;53.548;9.964;2023-11-19T01:57:27;4.20;;;1.30;;
28613;SDS011;15806;53.548;9.964;2023-11-19T01:59:08;1.97;;;1.10;;
28613;SDS011;15806;53.548;9.964;2023-11-19T02:00:50;2.25;;;1.05;;
28613;SDS011;15806;53.548;9.964;2023-11-19T02:02:31;5.50;;;1.43;;
28613;SDS011;15806;53.548;9.964;2023-11-19T02:04:12;1.13;;;0.90;;
28613;SDS011;15806;53.548;9.964;2023-11-19T02:05:52;2.20;;;1.00;;
28613;SDS011;15806;53.548;9.964;2023-11-19T02:07:33;3.17;;;1.37;;
28613;SDS011;15806;53.548;9.964;2023-11-19T02:09:13;1.60;;;1.00;;
28613;SDS011;15806;53.548;9.964;2023-11-19T02:10:54;1.73;;;0.90;;
28613;SDS011;15806;53.548;9.964;2023-11-19T02:12:34;2.37;;;1.13;;
28613;SDS011;15806;53.548;9.964;2023-11-19T02:14:15;3.97;;;1.30;;
28613;SDS011;15806;53.548;9.964;2023-11-19T02:15:56;3.35;;;1.25;;
28613;SDS011;15806;53.548;9.964;2023-11-19T02:17:37;3.27;;;1.33;;
28613;SDS011;15806;53.548;9.964;2023-11-19T02:19:20;3.93;;;1.10;;
28613;SDS011;15806;53.548;9.964;2023-11-19T02:21:01;3.20;;;1.08;;
28613;SDS011;15806;53.548;9.964;2023-11-19T02:22:41;2.53;;;0.97;;
28613;SDS011;15806;53.548;9.964;2023-11-19T02:24:23;3.15;;;0.90;;
28613;SDS011;15806;53.548;9.964;2023-11-19T02:26:14;3.13;;;1.70;;
28613;SDS011;15806;53.548;9.964;2023-11-19T02:27:59;2.40;;;1.10;;
28613;SDS011;15806;53.548;9.964;2023-11-19T02:29:41;1.58;;;0.70;;
28613;SDS011;15806;53.548;9.964;2023-11-19T02:31:22;2.80;;;1.30;;
28613;SDS011;15806;53.548;9.964;2023-11-19T02:33:02;4.00;;;1.20;;
28613;SDS011;15806;53.548;9.964;2023-11-19T02:34:43;4.27;;;1.00;;
28613;SDS011;15806;53.548;9.964;2023-11-19T02:36:23;2.00;;;0.93;;
28613;SDS011;15806;53.548;9.964;2023-11-19T02:38:04;3.40;;;0.87;;
28613;SDS011;15806;53.548;9.964;2023-11-19T02:39:44;2.17;;;1.10;;
28613;SDS011;15806;53.548;9.964;2023-11-19T02:41:25;1.70;;;1.00;;
28613;SDS011;15806;53.548;9.964;2023-11-19T02:43:05;3.57;;;0.87;;
28613;SDS011;15806;53.548;9.964;2023-11-19T02:44:46;1.57;;;0.87;;
28613;SDS011;15806;53.548;9.964;2023-11-19T02:46:26;1.60;;;0.90;;
28613;SDS011;15806;53.548;9.964;2023-11-19T02:48:07;2.17;;;1.00;;
28613;SDS011;15806;53.548;9.964;2023-11-19T02:49:47;2.10;;;0.97;;
28613;SDS011;15806;53.548;9.964;2023-11-19T02:51:28;1.30;;;0.83;;
28613;SDS011;15806;53.548;9.964;2023-11-19T02:53:08;5.10;;;0.97;;
28613;SDS011;15806;53.548;9.964;2023-11-19T02:54:49;2.67;;;0.90;;
28613;SDS011;15806;53.548;9.964;2023-11-19T02:56:29;1.17;;;0.73;;
28613;SDS011;15806;53.548;9.964;2023-11-19T02:58:09;1.50;;;0.90;;
28613;SDS011;15806;53.548;9.964;2023-11-19T02:59:50;1.27;;;0.83;;
28613;SDS011;15806;53.548;9.964;2023-11-19T03:01:30;1.47;;;0.80;;
28613;SDS011;15806;53.548;9.964;2023-11-19T03:03:11;2.03;;;1.30;;
28613;SDS011;15806;53.548;9.964;2023-11-19T03:04:51;2.07;;;0.70;;
28613;SDS011;15806;53.548;9.964;2023-11-19T03:06:32;1.00;;;0.80;;
28613;SDS011;15806;53.548;9.964;2023-11-19T03:08:13;0.97;;;0.77;;
28613;SDS011;15806;53.548;9.964;2023-11-19T03:09:54;1.42;;;0.70;;
28613;SDS011;15806;53.548;9.964;2023-11-19T03:11:34;1.77;;;0.90;;
28613;SDS011;15806;53.548;9.964;2023-11-19T03:13:15;1.30;;;0.73;;
28613;SDS011;15806;53.548;9.964;2023-11-19T03:14:56;1.38;;;0.68;;
28613;SDS011;15806;53.548;9.964;2023-11-19T03:16:36;2.23;;;0.73;;
28613;SDS011;15806;53.548;9.964;2023-11-19T03:18:17;1.60;;;0.70;;
28613;SDS011;15806;53.548;9.964;2023-11-19T03:19:57;3.53;;;0.83;;
28613;SDS011;15806;53.548;9.964;2023-11-19T03:21:38;1.67;;;0.80;;
28613;SDS011;15806;53.548;9.964;2023-11-19T03:23:18;1.43;;;0.90;;
28613;SDS011;15806;53.548;9.964;2023-11-19T03:24:59;1.20;;;0.77;;
28613;SDS011;15806;53.548;9.964;2023-11-19T03:26:40;1.60;;;0.98;;
28613;SDS011;15806;53.548;9.964;2023-11-19T03:28:20;1.07;;;0.77;;
28613;SDS011;15806;53.548;9.964;2023-11-19T03:30:01;1.27;;;0.70;;
28613;SDS011;15806;53.548;9.964;2023-11-19T03:31:42;2.05;;;0.75;;
28613;SDS011;15806;53.548;9.964;2023-11-19T03:33:23;2.13;;;1.30;;
28613;SDS011;15806;53.548;9.964;2023-11-19T03:35:03;1.67;;;1.00;;
28613;SDS011;15806;53.548;9.964;2023-11-19T03:36:44;2.08;;;1.00;;
28613;SDS011;15806;53.548;9.964;2023-11-19T03:38:25;1.90;;;1.03;;
28613;SDS011;15806;53.548;9.964;2023-11-19T03:40:05;1.13;;;0.90;;
28613;SDS011;15806;53.548;9.964;2023-11-19T03:41:46;2.90;;;1.38;;
28613;SDS011;15806;53.548;9.964;2023-11-19T03:43:27;2.00;;;1.10;;
28613;SDS011;15806;53.548;9.964;2023-11-19T03:45:07;3.70;;;1.20;;
28613;SDS011;15806;53.548;9.964;2023-11-19T03:46:48;3.40;;;1.00;;
28613;SDS011;15806;53.548;9.964;2023-11-19T03:48:28;2.03;;;1.23;;
28613;SDS011;15806;53.548;9.964;2023-11-19T03:50:09;1.80;;;1.10;;
28613;SDS011;15806;53.548;9.964;2023-11-19T03:51:49;2.03;;;1.10;;
28613;SDS011;15806;53.548;9.964;2023-11-19T03:53:30;1.67;;;1.10;;
28613;SDS011;15806;53.548;9.964;2023-11-19T03:55:10;3.00;;;1.33;;
28613;SDS011;15806;53.548;9.964;2023-11-19T03:56:51;1.60;;;1.10;;
28613;SDS011;15806;53.548;9.964;2023-11-19T03:58:31;2.87;;;1.30;;
28613;SDS011;15806;53.548;9.964;2023-11-19T04:00:12;3.53;;;1.40;;
28613;SDS011;15806;53.548;9.964;2023-11-19T04:01:53;3.05;;;1.65;;
28613;SDS011;15806;53.548;9.964;2023-11-19T04:03:33;5.67;;;1.67;;
28613;SDS011;15806;53.548;9.964;2023-11-19T04:05:14;3.73;;;1.27;;
28613;SDS011;15806;53.548;9.964;2023-11-19T04:06:54;2.37;;;1.40;;
28613;SDS011;15806;53.548;9.964;2023-11-19T04:08:35;3.97;;;1.40;;
28613;SDS011;15806;53.548;9.964;2023-11-19T04:10:16;2.03;;;1.30;;
28613;SDS011;15806;53.548;9.964;2023-11-19T04:11:57;4.93;;;1.70;;
28613;SDS011;15806;53.548;9.964;2023-11-19T04:13:37;3.97;;;1.60;;
28613;SDS011;15806;53.548;9.964;2023-11-19T04:15:18;3.17;;;1.60;;
28613;SDS011;15806;53.548;9.964;2023-11-19T04:16:58;3.07;;;1.57;;
28613;SDS011;15806;53.548;9.964;2023-11-19T04:18:39;5.00;;;1.73;;
28613;SDS011;15806;53.548;9.964;2023-11-19T04:20:19;3.93;;;1.90;;
28613;SDS011;15806;53.548;9.964;2023-11-19T04:22:00;2.40;;;1.33;;
28613;SDS011;15806;53.548;9.964;2023-11-19T04:23:40;3.77;;;1.80;;
28613;SDS011;15806;53.548;9.964;2023-11-19T04:25:21;3.37;;;1.67;;
28613;SDS011;15806;53.548;9.964;2023-11-19T04:27:01;3.13;;;1.60;;
28613;SDS011;15806;53.548;9.964;2023-11-19T04:28:42;3.60;;;1.83;;
28613;SDS011;15806;53.548;9.964;2023-11-19T04:30:22;2.83;;;1.37;;
28613;SDS011;15806;53.548;9.964;2023-11-19T04:32:03;3.80;;;2.10;;
28613;SDS011;15806;53.548;9.964;2023-11-19T04:33:43;4.10;;;2.20;;
28613;SDS011;15806;53.548;9.964;2023-11-19T04:35:24;4.07;;;2.20;;
28613;SDS011;15806;53.548;9.964;2023-11-19T04:37:04;4.03;;;1.83;;
28613;SDS011;15806;53.548;9.964;2023-11-19T04:38:45;2.63;;;1.60;;
28613;SDS011;15806;53.548;9.964;2023-11-19T04:40:25;3.87;;;1.80;;
28613;SDS011;15806;53.548;9.964;2023-11-19T04:42:06;7.00;;;2.27;;
28613;SDS011;15806;53.548;9.964;2023-11-19T04:43:46;3.63;;;1.50;;
28613;SDS011;15806;53.548;9.964;2023-11-19T04:45:27;10.80;;;1.90;;
28613;SDS011;15806;53.548;9.964;2023-11-19T04:47:07;5.67;;;2.40;;
28613;SDS011;15806;53.548;9.964;2023-11-19T04:48:48;3.73;;;2.03;;
28613;SDS011;15806;53.548;9.964;2023-11-19T04:50:28;3.87;;;1.80;;
28613;SDS011;15806;53.548;9.964;2023-11-19T04:52:09;4.50;;;1.93;;
28613;SDS011;15806;53.548;9.964;2023-11-19T04:53:49;4.57;;;2.07;;
28613;SDS011;15806;53.548;9.964;2023-11-19T04:55:30;7.30;;;2.00;;
28613;SDS011;15806;53.548;9.964;2023-11-19T04:57:10;4.40;;;2.00;;
28613;SDS011;15806;53.548;9.964;2023-11-19T04:58:51;3.67;;;1.80;;
28613;SDS011;15806;53.548;9.964;2023-11-19T05:00:32;11.47;;;2.43;;
28613;SDS011;15806;53.548;9.964;2023-11-19T05:02:12;6.85;;;3.05;;
28613;SDS011;15806;53.548;9.964;2023-11-19T05:03:53;6.03;;;2.17;;
28613;SDS011;15806;53.548;9.964;2023-11-19T05:05:33;8.77;;;2.30;;
28613;SDS011;15806;53.548;9.964;2023-11-19T05:07:14;6.40;;;2.97;;
28613;SDS011;15806;53.548;9.964;2023-11-19T05:08:55;14.63;;;2.73;;
28613;SDS011;15806;53.548;9.964;2023-11-19T05:10:36;11.20;;;3.03;;
28613;SDS011;15806;53.548;9.964;2023-11-19T05:12:16;9.90;;;3.03;;
28613;SDS011;15806;53.548;9.964;2023-11-19T05:13:57;19.77;;;4.50;;
28613;SDS011;15806;53.548;9.964;2023-11-19T05:15:38;18.63;;;5.30;;
28613;SDS011;15806;53.548;9.964;2023-11-19T05:17:18;16.43;;;4.07;;
28613;SDS011;15806;53.548;9.964;2023-11-19T05:18:59;15.10;;;4.80;;
28613;SDS011;15806;53.548;9.964;2023-11-19T05:20:39;14.30;;;4.37;;
28613;SDS011;15806;53.548;9.964;2023-11-19T05:22:20;22.00;;;6.23;;
28613;SDS011;15806;53.548;9.964;2023-11-19T05:24:01;20.13;;;5.47;;
28613;SDS011;15806;53.548;9.964;2023-11-19T05:25:42;24.92;;;7.65;;
28613;SDS011;15806;53.548;9.964;2023-11-19T05:27:22;23.30;;;7.80;;
28613;SDS011;15806;53.548;9.964;2023-11-19T05:29:02;35.83;;;7.17;;
28613;SDS011;15806;53.548;9.964;2023-11-19T05:30:43;26.53;;;7.63;;
28613;SDS011;15806;53.548;9.964;2023-11-19T05:32:23;27.70;;;7.47;;
28613;SDS011;15806;53.548;9.964;2023-11-19T05:34:04;28.97;;;7.40;;
28613;SDS011;15806;53.548;9.964;2023-11-19T05:35:44;27.10;;;7.13;;
28613;SDS011;15806;53.548;9.964;2023-11-19T05:37:25;39.10;;;10.37;;
28613;SDS011;15806;53.548;9.964;2023-11-19T05:39:05;25.63;;;8.27;;
28613;SDS011;15806;53.548;9.964;2023-11-19T05:40:46;28.90;;;8.57;;
28613;SDS011;15806;53.548;9.964;2023-11-19T05:42:26;30.80;;;9.23;;
28613;SDS011;15806;53.548;9.964;2023-11-19T05:44:07;28.83;;;9.83;;
28613;SDS011;15806;53.548;9.964;2023-11-19T05:45:47;31.17;;;9.47;;
28613;SDS011;15806;53.548;9.964;2023-11-19T05:47:28;52.10;;;13.23;;
28613;SDS011;15806;53.548;9.964;2023-11-19T05:49:08;65.13;;;12.83;;
28613;SDS011;15806;53.548;9.964;2023-11-19T05:50:49;39.53;;;11.13;;
28613;SDS011;15806;53.548;9.964;2023-11-19T05:52:29;34.80;;;11.30;;
28613;SDS011;15806;53.548;9.964;2023-11-19T05:54:10;40.43;;;10.93;;
28613;SDS011;15806;53.548;9.964;2023-11-19T05:55:50;35.87;;;11.87;;
28613;SDS011;15806;53.548;9.964;2023-11-19T05:57:31;39.83;;;9.60;;
28613;SDS011;15806;53.548;9.964;2023-11-19T05:59:11;26.70;;;8.73;;
28613;SDS011;15806;53.548;9.964;2023-11-19T06:00:52;33.40;;;9.00;;
28613;SDS011;15806;53.548;9.964;2023-11-19T06:02:33;30.53;;;9.43;;
28613;SDS011;15806;53.548;9.964;2023-11-19T06:04:14;39.38;;;10.82;;
28613;SDS011;15806;53.548;9.964;2023-11-19T06:05:54;40.40;;;11.37;;
28613;SDS011;15806;53.548;9.964;2023-11-19T06:07:35;37.47;;;11.23;;
28613;SDS011;15806;53.548;9.964;2023-11-19T06:09:16;29.23;;;10.47;;
28613;SDS011;15806;53.548;9.964;2023-11-19T06:10:56;28.10;;;9.17;;
28613;SDS011;15806;53.548;9.964;2023-11-19T06:12:37;31.10;;;9.83;;
28613;SDS011;15806;53.548;9.964;2023-11-19T06:14:17;35.37;;;10.67;;
28613;SDS011;15806;53.548;9.964;2023-11-19T06:15:58;36.85;;;11.20;;
28613;SDS011;15806;53.548;9.964;2023-11-19T06:17:39;29.20;;;7.93;;
28613;SDS011;15806;53.548;9.964;2023-11-19T06:19:19;27.50;;;9.13;;
28613;SDS011;15806;53.548;9.964;2023-11-19T06:21:00;36.77;;;8.30;;
28613;SDS011;15806;53.548;9.964;2023-11-19T06:22:40;40.20;;;8.57;;
28613;SDS011;15806;53.548;9.964;2023-11-19T06:24:21;32.43;;;9.43;;
28613;SDS011;15806;53.548;9.964;2023-11-19T06:26:01;33.00;;;9.13;;
28613;SDS011;15806;53.548;9.964;2023-11-19T06:27:42;20.80;;;7.83;;
28613;SDS011;15806;53.548;9.964;2023-11-19T06:29:22;39.77;;;10.27;;
28613;SDS011;15806;53.548;9.964;2023-11-19T06:31:03;30.23;;;7.03;;
28613;SDS011;15806;53.548;9.964;2023-11-19T06:32:44;26.98;;;7.72;;
28613;SDS011;15806;53.548;9.964;2023-11-19T06:34:24;29.67;;;7.90;;
28613;SDS011;15806;53.548;9.964;2023-11-19T06:36:05;28.37;;;6.70;;
28613;SDS011;15806;53.548;9.964;2023-11-19T06:37:46;22.50;;;7.88;;
28613;SDS011;15806;53.548;9.964;2023-11-19T06:39:26;33.13;;;7.83;;
28613;SDS011;15806;53.548;9.964;2023-11-19T06:41:07;34.10;;;7.00;;
28613;SDS011;15806;53.548;9.964;2023-11-19T06:42:48;32.05;;;7.97;;
28613;SDS011;15806;53.548;9.964;2023-11-19T06:44:28;20.77;;;6.40;;
28613;SDS011;15806;53.548;9.964;2023-11-19T06:46:18;26.87;;;6.23;;
28613;SDS011;15806;53.548;9.964;2023-11-19T06:48:02;24.73;;;7.53;;
28613;SDS011;15806;53.548;9.964;2023-11-19T06:49:44;23.30;;;6.18;;
28613;SDS011;15806;53.548;9.964;2023-11-19T06:51:24;28.38;;;7.03;;
28613;SDS011;15806;53.548;9.964;2023-11-19T06:53:05;29.37;;;7.53;;
28613;SDS011;15806;53.548;9.964;2023-11-19T06:54:45;23.33;;;5.67;;
28613;SDS011;15806;53.548;9.964;2023-11-19T06:56:26;25.40;;;6.47;;
28613;SDS011;15806;53.548;9.964;2023-11-19T06:58:07;25.20;;;6.23;;
28613;SDS011;15806;53.548;9.964;2023-11-19T06:59:47;30.30;;;6.57;;
28613;SDS011;15806;53.548;9.964;2023-11-19T07:01:27;21.30;;;6.33;;
28613;SDS011;15806;53.548;9.964;2023-11-19T07:03:08;31.80;;;5.90;;
28613;SDS011;15806;53.548;9.964;2023-11-19T07:04:48;25.17;;;5.67;;
28613;SDS011;15806;53.548;9.964;2023-11-19T07:06:29;31.33;;;6.80;;
28613;SDS011;15806;53.548;9.964;2023-11-19T07:08:09;24.57;;;5.40;;
28613;SDS011;15806;53.548;9.964;2023-11-19T07:09:50;30.40;;;5.67;;
28613;SDS011;15806;53.548;9.964;2023-11-19T07:11:30;17.93;;;6.27;;
28613;SDS011;15806;53.548;9.964;2023-11-19T07:13:11;23.57;;;6.03;;
28613;SDS011;15806;53.548;9.964;2023-11-19T07:14:52;28.47;;;6.13;;
28613;SDS011;15806;53.548;9.964;2023-11-19T07:16:32;25.65;;;4.70;;
28613;SDS011;15806;53.548;9.964;2023-11-19T07:18:13;25.52;;;5.97;;
28613;SDS011;15806;53.548;9.964;2023-11-19T07:19:54;37.50;;;5.37;;
28613;SDS011;15806;53.548;9.964;2023-11-19T07:21:34;11.70;;;5.03;;
28613;SDS011;15806;53.548;9.964;2023-11-19T07:23:15;33.33;;;6.70;;
28613;SDS011;15806;53.548;9.964;2023-11-19T07:24:56;13.87;;;3.40;;
28613;SDS011;15806;53.548;9.964;2023-11-19T07:26:40;21.67;;;5.17;;
28613;SDS011;15806;53.548;9.964;2023-11-19T07:28:22;13.00;;;2.90;;
28613;SDS011;15806;53.548;9.964;2023-11-19T07:30:02;27.23;;;5.10;;
28613;SDS011;15806;53.548;9.964;2023-11-19T07:31:43;22.50;;;5.25;;
28613;SDS011;15806;53.548;9.964;2023-11-19T07:33:24;17.33;;;3.67;;
28613;SDS011;15806;53.548;9.964;2023-11-19T07:35:05;22.30;;;3.47;;
28613;SDS011;15806;53.548;9.964;2023-11-19T07:36:45;26.73;;;3.42;;
28613;SDS011;15806;53.548;9.964;2023-11-19T07:38:26;18.80;;;3.53;;
28613;SDS011;15806;53.548;9.964;2023-11-19T07:40:07;21.30;;;2.93;;
28613;SDS011;15806;53.548;9.964;2023-11-19T07:41:48;15.48;;;2.78;;
28613;SDS011;15806;53.548;9.964;2023-11-19T07:43:28;16.63;;;3.00;;
28613;SDS011;15806;53.548;9.964;2023-11-19T07:45:09;21.53;;;4.77;;
28613;SDS011;15806;53.548;9.964;2023-11-19T07:46:49;29.93;;;4.20;;
28613;SDS011;15806;53.548;9.964;2023-11-19T07:48:30;22.17;;;3.70;;
28613;SDS011;15806;53.548;9.964;2023-11-19T07:50:10;24.60;;;3.40;;
28613;SDS011;15806;53.548;9.964;2023-11-19T07:51:51;23.10;;;4.10;;
28613;SDS011;15806;53.548;9.964;2023-11-19T07:53:31;20.97;;;3.97;;
28613;SDS011;15806;53.548;9.964;2023-11-19T07:55:12;20.57;;;3.73;;
28613;SDS011;15806;53.548;9.964;2023-11-19T07:56:52;23.23;;;4.13;;
28613;SDS011;15806;53.548;9.964;2023-11-19T07:58:33;28.07;;;3.43;;
28613;SDS011;15806;53.548;9.964;2023-11-19T08:00:14;23.00;;;3.43;;
28613;SDS011;15806;53.548;9.964;2023-11-19T08:01:54;25.75;;;3.60;;
28613;SDS011;15806;53.548;9.964;2023-11-19T08:03:35;14.23;;;3.20;;
28613;SDS011;15806;53.548;9.964;2023-11-19T08:05:15;22.43;;;4.07;;
28613;SDS011;15806;53.548;9.964;2023-11-19T08:06:56;23.60;;;3.77;;
28613;SDS011;15806;53.548;9.964;2023-11-19T08:08:36;36.63;;;4.33;;
28613;SDS011;15806;53.548;9.964;2023-11-19T08:10:17;27.67;;;3.40;;
28613;SDS011;15806;53.548;9.964;2023-11-19T08:11:57;14.70;;;2.73;;
28613;SDS011;15806;53.548;9.964;2023-11-19T08:13:38;24.57;;;3.10;;
28613;SDS011;15806;53.548;9.964;2023-11-19T08:15:18;32.43;;;3.67;;
28613;SDS011;15806;53.548;9.964;2023-11-19T08:16:59;29.10;;;3.00;;
28613;SDS011;15806;53.548;9.964;2023-11-19T08:18:41;31.63;;;3.33;;
28613;SDS011;15806;53.548;9.964;2023-11-19T08:20:22;41.25;;;4.53;;
28613;SDS011;15806;53.548;9.964;2023-11-19T08:22:03;24.53;;;2.83;;
28613;SDS011;15806;53.548;9.964;2023-11-19T08:23:43;22.30;;;3.27;;
28613;SDS011;15806;53.548;9.964;2023-11-19T08:25:24;24.87;;;2.83;;
28613;SDS011;15806;53.548;9.964;2023-11-19T08:27:04;35.40;;;3.40;;
28613;SDS011;15806;53.548;9.964;2023-11-19T08:28:45;31.40;;;3.27;;
28613;SDS011;15806;53.548;9.964;2023-11-19T08:30:26;22.17;;;2.60;;
28613;SDS011;15806;53.548;9.964;2023-11-19T08:32:06;27.38;;;2.85;;
28613;SDS011;15806;53.548;9.964;2023-11-19T08:33:47;22.23;;;3.83;;
28613;SDS011;15806;53.548;9.964;2023-11-19T08:35:27;30.57;;;3.00;;
28613;SDS011;15806;53.548;9.964;2023-11-19T08:37:08;26.63;;;3.25;;
28613;SDS011;15806;53.548;9.964;2023-11-19T08:38:49;25.70;;;3.37;;
28613;SDS011;15806;53.548;9.964;2023-11-19T08:40:29;30.83;;;3.43;;
28613;SDS011;15806;53.548;9.964;2023-11-19T08:42:10;24.03;;;3.27;;
28613;SDS011;15806;53.548;9.964;2023-11-19T08:43:50;30.53;;;2.70;;
28613;SDS011;15806;53.548;9.964;2023-11-19T08:45:31;21.73;;;3.13;;
28613;SDS011;15806;53.548;9.964;2023-11-19T08:47:11;22.93;;;2.00;;
28613;SDS011;15806;53.548;9.964;2023-11-19T08:48:52;15.77;;;2.80;;
28613;SDS011;15806;53.548;9.964;2023-11-19T08:50:32;35.83;;;4.60;;
28613;SDS011;15806;53.548;9.964;2023-11-19T08:52:13;25.37;;;3.23;;
28613;SDS011;15806;53.548;9.964;2023-11-19T08:53:53;27.03;;;3.47;;
28613;SDS011;15806;53.548;9.964;2023-11-19T08:55:34;29.77;;;3.13;;
28613;SDS011;15806;53.548;9.964;2023-11-19T08:57:14;23.67;;;3.37;;
28613;SDS011;15806;53.548;9.964;2023-11-19T08:58:55;13.97;;;2.33;;
28613;SDS011;15806;53.548;9.964;2023-11-19T09:00:35;33.10;;;3.40;;
28613;SDS011;15806;53.548;9.964;2023-11-19T09:02:16;43.53;;;4.33;;
28613;SDS011;15806;53.548;9.964;2023-11-19T09:03:56;24.47;;;2.60;;
28613;SDS011;15806;53.548;9.964;2023-11-19T09:05:36;23.67;;;2.33;;
28613;SDS011;15806;53.548;9.964;2023-11-19T09:07:17;24.30;;;4.27;;
28613;SDS011;15806;53.548;9.964;2023-11-19T09:08:57;36.37;;;5.40;;
28613;SDS011;15806;53.548;9.964;2023-11-19T09:10:38;23.93;;;2.90;;
28613;SDS011;15806;53.548;9.964;2023-11-19T09:12:18;34.00;;;3.03;;
28613;SDS011;15806;53.548;9.964;2023-11-19T09:13:59;28.80;;;2.83;;
28613;SDS011;15806;53.548;9.964;2023-11-19T09:15:39;11.77;;;2.10;;
28613;SDS011;15806;53.548;9.964;2023-11-19T09:17:20;18.03;;;2.17;;
28613;SDS011;15806;53.548;9.964;2023-11-19T09:19:00;42.23;;;5.00;;
28613;SDS011;15806;53.548;9.964;2023-11-19T09:20:41;33.90;;;3.40;;
28613;SDS011;15806;53.548;9.964;2023-11-19T09:22:21;28.13;;;3.43;;
28613;SDS011;15806;53.548;9.964;2023-11-19T09:24:02;16.70;;;2.87;;
28613;SDS011;15806;53.548;9.964;2023-11-19T09:25:43;18.37;;;2.47;;
28613;SDS011;15806;53.548;9.964;2023-11-19T09:27:23;30.40;;;4.20;;
28613;SDS011;15806;53.548;9.964;2023-11-19T09:29:04;29.93;;;3.70;;
28613;SDS011;15806;53.548;9.964;2023-11-19T09:30:44;20.97;;;2.73;;
28613;SDS011;15806;53.548;9.964;2023-11-19T09:32:25;28.97;;;3.43;;
28613;SDS011;15806;53.548;9.964;2023-11-19T09:34:05;21.17;;;2.90;;
28613;SDS011;15806;53.548;9.964;2023-11-19T09:35:46;23.07;;;2.27;;
28613;SDS011;15806;53.548;9.964;2023-11-19T09:37:26;21.70;;;2.60;;
28613;SDS011;15806;53.548;9.964;2023-11-19T09:39:07;19.90;;;4.07;;
28613;SDS011;15806;53.548;9.964;2023-11-19T09:40:47;33.80;;;4.27;;
28613;SDS011;15806;53.548;9.964;2023-11-19T09:42:28;25.50;;;2.90;;
28613;SDS011;15806;53.548;9.964;2023-11-19T09:44:09;28.17;;;2.42;;
28613;SDS011;15806;53.548;9.964;2023-11-19T09:45:50;18.80;;;2.47;;
28613;SDS011;15806;53.548;9.964;2023-11-19T09:47:31;31.30;;;2.88;;
28613;SDS011;15806;53.548;9.964;2023-11-19T09:49:12;27.40;;;2.70;;
28613;SDS011;15806;53.548;9.964;2023-11-19T09:50:53;27.08;;;5.80;;
28613;SDS011;15806;53.548;9.964;2023-11-19T09:52:34;26.37;;;3.77;;
28613;SDS011;15806;53.548;9.964;2023-11-19T09:54:14;28.80;;;3.93;;
28613;SDS011;15806;53.548;9.964;2023-11-19T09:55:55;36.00;;;3.67;;
28613;SDS011;15806;53.548;9.964;2023-11-19T09:57:35;27.03;;;3.40;;
28613;SDS011;15806;53.548;9.964;2023-11-19T09:59:19;26.10;;;2.83;;
28613;SDS011;15806;53.548;9.964;2023-11-19T10:00:59;22.70;;;2.90;;
28613;SDS011;15806;53.548;9.964;2023-11-19T10:02:40;34.40;;;4.38;;
28613;SDS011;15806;53.548;9.964;2023-11-19T10:04:21;18.85;;;2.17;;